Time;durP1;ratioP1;P1;durP2;ratioP2;P2;SDS_P1;SDS_P2;PMS_P1;PMS_P2;Temp;Humidity;BMP_temperature;BMP_pressure;BME280_temperature;BME280_humidity;BME280_pressure;Samples;Min_cycle;Max_cycle;Signal;HPM_P1;HPM_P2
2024/01/02 00:00:48;;;;;;;0.00;0.00;;;;;;;-145.06;100.00;54791.66;10460118;28;20470;-68
2024/01/02 00:05:49;;;;;;;0.00;0.00;;;;;;;-145.06;100.00;54813.94;10463977;28;20028;-68
2024/01/02 00:10:49;;;;;;;0.00;0.00;;;;;;;-145.06;100.00;54789.63;10459193;28;20013;-68
2024/01/02 00:15:49;;;;;;;0.00;0.00;;;;;;;-145.06;100.00;54799.75;10461609;28;20021;-68
2024/01/02 00:20:50;;;;;;;0.00;0.00;;;;;;;-145.06;100.00;54789.63;10459943;28;20028;-68
2024/01/02 00:25:51;;;;;;;0.00;0.00;;;;;;;-145.06;100.00;54793.69;10463580;28;20017;-67
2024/01/02 00:30:51;;;;;;;0.00;0.00;;;;;;;-145.06;100.00;54813.94;10458887;28;20063;-68
2024/01/02 00:35:51;;;;;;;0.00;0.00;;;;;;;-145.06;100.00;54785.59;10458431;28;20024;-68
2024/01/02 00:40:52;;;;;;;0.00;0.00;;;;;;;-145.06;100.00;54801.78;10459022;28;20017;-68
2024/01/02 00:45:53;;;;;;;0.00;0.00;;;;;;;-145.06;100.00;54783.56;10464496;28;20032;-68
2024/01/02 00:50:53;;;;;;;0.00;0.00;;;;;;;-145.06;100.00;54787.59;10460888;28;20110;-68
2024/01/02 00:55:53;;;;;;;0.00;0.00;;;;;;;-145.06;100.00;54826.09;10454833;28;20024;-67
2024/01/02 01:00:54;;;;;;;0.00;0.00;;;;;;;-145.06;100.00;54856.47;10460611;28;20050;-68
2024/01/02 01:05:54;;;;;;;0.00;0.00;;;;;;;-145.06;100.00;54854.44;10457138;28;20043;-67
2024/01/02 01:10:54;;;;;;;0.10;0.10;;;;;;;-145.06;100.00;54797.72;10454607;28;20488;-68
2024/01/02 01:15:54;;;;;;;0.00;0.00;;;;;;;-145.06;100.00;54828.13;10456893;28;20043;-67
2024/01/02 01:20:56;;;;;;;0.00;0.00;;;;;;;-145.06;100.00;54842.31;10460380;28;20024;-67
2024/01/02 01:25:57;;;;;;;0.00;0.00;;;;;;;-145.06;100.00;54832.16;10456151;28;20549;-68
2024/01/02 01:30:57;;;;;;;0.00;0.00;;;;;;;-145.06;100.00;54856.47;10456450;28;20021;-68
2024/01/02 01:35:58;;;;;;;0.10;0.10;;;;;;;-145.06;100.00;54850.41;10456354;28;20028;-68
2024/01/02 01:40:58;;;;;;;0.00;0.00;;;;;;;-145.06;100.00;54840.28;10455965;28;20025;-68
2024/01/02 01:45:58;;;;;;;0.00;0.00;;;;;;;-145.06;100.00;54824.06;10450146;28;20021;-68
2024/01/02 01:51:00;;;;;;;0.00;0.00;;;;;;;-145.06;100.00;54892.94;10459411;28;20043;-68
2024/01/02 01:56:02;;;;;;;0.00;0.00;;;;;;;-145.06;100.00;54824.06;10454989;28;20104;-68
2024/01/02 02:01:03;;;;;;;0.00;0.00;;;;;;;-145.06;100.00;54876.72;10453241;28;20025;-68
2024/01/02 02:06:04;;;;;;;0.00;0.00;;;;;;;-145.06;100.00;54846.34;10453166;28;20025;-68
2024/01/02 02:11:04;;;;;;;0.00;0.00;;;;;;;-145.06;100.00;54868.63;10431659;28;20013;-68
2024/01/02 02:16:05;;;;;;;0.00;0.00;;;;;;;-145.06;100.00;54866.59;10452367;28;20608;-68
2024/01/02 02:21:05;;;;;;;0.00;0.00;;;;;;;-145.06;100.00;54815.97;10459048;28;20415;-67
2024/01/02 02:26:05;;;;;;;0.00;0.00;;;;;;;-145.06;100.00;54840.28;10464553;28;20029;-68
2024/01/02 02:31:06;;;;;;;0.00;0.00;;;;;;;-145.06;100.00;54846.34;10454744;28;20017;-68
2024/01/02 02:36:06;;;;;;;0.00;0.00;;;;;;;-145.06;100.00;54834.19;10452368;28;20072;-67
2024/01/02 02:41:07;;;;;;;0.00;0.00;;;;;;;-145.06;100.00;54801.78;10461085;28;20099;-68
2024/01/02 02:46:07;;;;;;;0.00;0.00;;;;;;;-145.06;100.00;54826.09;10457678;28;20379;-68
2024/01/02 02:51:07;;;;;;;0.00;0.00;;;;;;;-145.06;100.00;54807.88;10441760;28;20644;-68
2024/01/02 02:56:14;;;;;;;0.00;0.00;;;;;;;-145.06;100.00;54783.56;10461125;28;20032;-68
2024/01/02 03:01:23;;;;;;;0.00;0.00;;;;;;;-145.06;100.00;54811.91;10461249;28;20646;-68
2024/01/02 03:06:23;;;;;;;0.00;0.00;;;;;;;-145.06;100.00;54797.72;10459082;28;20028;-68
2024/01/02 03:11:24;;;;;;;0.08;0.08;;;;;;;-145.06;100.00;54801.78;10465016;28;20429;-68
2024/01/02 03:16:24;;;;;;;0.00;0.00;;;;;;;-145.06;100.00;54815.97;10457139;28;20025;-68
2024/01/02 03:21:28;;;;;;;0.00;0.00;;;;;;;-145.06;100.00;54809.88;10460519;28;20487;-68
2024/01/02 03:26:28;;;;;;;0.08;0.08;;;;;;;-145.06;100.00;54826.09;10439829;28;20518;-68
2024/01/02 03:31:29;;;;;;;0.00;0.00;;;;;;;-145.06;100.00;54815.97;10457757;28;20107;-68
2024/01/02 03:36:29;;;;;;;0.00;0.00;;;;;;;-145.06;100.00;54828.13;10454788;28;20036;-67
2024/01/02 03:41:29;;;;;;;0.00;0.00;;;;;;;-145.06;100.00;54763.31;10457311;28;20028;-68
2024/01/02 03:46:29;;;;;;;0.00;0.00;;;;;;;-145.06;100.00;54767.34;10455915;28;20017;-67
2024/01/02 03:51:30;;;;;;;0.00;0.00;;;;;;;-145.06;100.00;54783.56;10456846;28;20497;-68
2024/01/02 03:56:30;;;;;;;0.00;0.00;;;;;;;-145.06;100.00;54757.22;10462400;28;20027;-67
2024/01/02 04:01:30;;;;;;;0.00;0.00;;;;;;;-145.06;100.00;54763.31;10457999;28;20282;-68
2024/01/02 04:06:32;;;;;;;0.00;0.00;;;;;;;-145.06;100.00;54767.34;10460494;28;20032;-68
2024/01/02 04:11:32;;;;;;;0.00;0.00;;;;;;;-145.06;100.00;54724.81;10461316;28;20013;-68
2024/01/02 04:16:33;;;;;;;0.00;0.00;;;;;;;-145.06;100.00;54741.03;10464296;28;20013;-67
2024/01/02 04:21:33;;;;;;;0.00;0.00;;;;;;;-145.06;100.00;54757.22;10455827;28;20823;-68
2024/01/02 04:26:33;;;;;;;0.00;0.00;;;;;;;-145.06;100.00;54739.00;10459604;28;20020;-67
2024/01/02 04:31:34;;;;;;;0.00;0.00;;;;;;;-145.06;100.00;54724.81;10457317;28;20493;-68
2024/01/02 04:36:34;;;;;;;0.00;0.00;;;;;;;-145.06;100.00;54734.94;10454235;28;20041;-68
2024/01/02 04:41:34;;;;;;;0.00;0.00;;;;;;;-145.06;100.00;54726.84;10461135;28;20021;-68
2024/01/02 04:46:35;;;;;;;0.00;0.00;;;;;;;-145.06;100.00;54747.09;10457761;28;20028;-68
2024/01/02 04:51:35;;;;;;;0.00;0.00;;;;;;;-145.06;100.00;54722.78;10459329;28;20073;-68
2024/01/02 04:56:35;;;;;;;0.00;0.00;;;;;;;-145.06;100.00;54710.63;10460036;28;20493;-68
2024/01/02 05:01:37;;;;;;;0.00;0.00;;;;;;;-145.06;100.00;54670.13;10456850;28;20106;-68
2024/01/02 05:06:37;;;;;;;0.00;0.00;;;;;;;-145.06;100.00;54710.63;10456297;28;20542;-68
2024/01/02 05:11:38;;;;;;;0.00;0.00;;;;;;;-145.06;100.00;54670.13;10455850;28;20013;-67
2024/01/02 05:16:38;;;;;;;0.00;0.00;;;;;;;-145.06;100.00;54720.75;10462694;28;20024;-68
2024/01/02 05:21:39;;;;;;;0.00;0.00;;;;;;;-145.06;100.00;54686.31;10441304;28;20025;-68
2024/01/02 05:26:39;;;;;;;0.00;0.00;;;;;;;-145.06;100.00;54678.22;10465506;28;20090;-68
2024/01/02 05:31:39;;;;;;;0.10;0.10;;;;;;;-145.06;100.00;54686.31;10439561;28;20012;-68
2024/01/02 05:36:39;;;;;;;0.00;0.00;;;;;;;-145.06;100.00;54672.16;10455381;28;20282;-68
2024/01/02 05:41:40;;;;;;;0.00;0.00;;;;;;;-145.06;100.00;54700.50;10453721;28;20017;-68
2024/01/02 05:46:40;;;;;;;0.00;0.00;;;;;;;-145.06;100.00;54710.63;10454258;28;20359;-69
2024/01/02 05:51:40;;;;;;;0.00;0.00;;;;;;;-145.06;100.00;54672.16;10458367;28;20013;-69
2024/01/02 05:56:41;;;;;;;0.00;0.00;;;;;;;-145.06;100.00;54670.13;10436001;28;20017;-69
2024/01/02 06:01:41;;;;;;;0.00;0.00;;;;;;;-145.06;100.00;54678.22;10457040;28;20239;-69
2024/01/02 06:06:41;;;;;;;0.00;0.00;;;;;;;-145.06;100.00;54674.19;10455908;28;20025;-68
2024/01/02 06:11:42;;;;;;;0.00;0.00;;;;;;;-145.06;100.00;54692.41;10444031;28;20064;-69
2024/01/02 06:16:42;;;;;;;0.00;0.00;;;;;;;-145.06;100.00;54684.31;10456246;28;20275;-69
2024/01/02 06:21:42;;;;;;;0.10;0.10;;;;;;;-145.06;100.00;54678.22;10454104;28;20017;-69
2024/01/02 06:26:43;;;;;;;0.00;0.00;;;;;;;-145.06;100.00;54698.47;10455345;28;20278;-69
2024/01/02 06:31:43;;;;;;;0.00;0.00;;;;;;;-145.06;100.00;54706.59;10468329;28;20474;-69
2024/01/02 06:36:43;;;;;;;0.00;0.00;;;;;;;-145.06;100.00;54674.19;10446950;28;20066;-68
2024/01/02 06:41:44;;;;;;;0.00;0.00;;;;;;;-145.06;100.00;54714.69;10462337;28;20040;-68
2024/01/02 06:46:44;;;;;;;0.00;0.00;;;;;;;-145.06;100.00;54682.28;10465437;28;20028;-69
2024/01/02 06:51:45;;;;;;;0.00;0.00;;;;;;;-145.06;100.00;54698.47;10451353;28;20020;-69
2024/01/02 06:56:46;;;;;;;0.00;0.00;;;;;;;-145.06;100.00;54716.72;10454709;28;20032;-70
2024/01/02 07:01:46;;;;;;;0.00;0.00;;;;;;;-145.06;100.00;54722.78;10448402;28;20024;-70
2024/01/02 07:06:46;;;;;;;0.00;0.00;;;;;;;-145.06;100.00;54722.78;10465058;28;20040;-69
2024/01/02 07:11:47;;;;;;;0.00;0.00;;;;;;;-145.06;100.00;54749.13;10464094;28;20075;-71
2024/01/02 07:16:48;;;;;;;0.10;0.10;;;;;;;-145.06;100.00;54710.63;10447049;28;20115;-71
2024/01/02 07:21:48;;;;;;;0.00;0.00;;;;;;;-145.06;100.00;54757.22;10462290;28;20486;-70
2024/01/02 07:26:48;;;;;;;0.00;0.00;;;;;;;-145.06;100.00;54765.31;10459778;28;20025;-71
2024/01/02 07:31:49;;;;;;;0.10;0.10;;;;;;;-145.06;100.00;54753.16;10457431;28;20013;-72
2024/01/02 07:36:49;;;;;;;0.00;0.00;;;;;;;-145.06;100.00;54761.28;10470291;28;20040;-70
2024/01/02 07:41:49;;;;;;;0.08;0.08;;;;;;;-145.06;100.00;54763.31;10464173;28;20454;-71
2024/01/02 07:46:50;;;;;;;0.03;0.03;;;;;;;-145.06;100.00;54793.69;10470848;28;20046;-72
2024/01/02 07:51:51;;;;;;;0.10;0.10;;;;;;;-145.06;100.00;54779.50;10468910;28;20509;-71
2024/01/02 07:56:51;;;;;;;0.10;0.10;;;;;;;-145.06;100.00;54801.78;10477841;28;20024;-71
2024/01/02 08:01:52;;;;;;;0.00;0.00;;;;;;;-145.06;100.00;54820.00;10490477;28;20032;-71
2024/01/02 08:06:52;;;;;;;0.00;0.00;;;;;;;-145.06;100.00;54789.63;10467024;28;20024;-72
2024/01/02 08:11:52;;;;;;;0.00;0.00;;;;;;;-145.06;100.00;54769.38;10443969;28;20263;-71
2024/01/02 08:16:53;;;;;;;0.03;0.03;;;;;;;-145.06;100.00;54777.47;10478910;28;20031;-71
2024/01/02 08:21:53;;;;;;;0.00;0.00;;;;;;;-145.06;100.00;54803.81;10472395;28;20494;-72
2024/01/02 08:26:53;;;;;;;0.00;0.00;;;;;;;-145.06;100.00;54791.66;10455847;28;20021;-71
2024/01/02 08:31:54;;;;;;;0.00;0.00;;;;;;;-145.06;100.00;54803.81;10496638;28;20496;-72
2024/01/02 08:36:54;;;;;;;0.00;0.00;;;;;;;-145.06;100.00;54771.41;10488199;28;20366;-72
2024/01/02 08:41:54;;;;;;;0.00;0.00;;;;;;;-145.06;100.00;54791.66;10485630;28;20028;-72
2024/01/02 08:46:55;;;;;;;0.00;0.00;;;;;;;-145.06;100.00;54783.56;10492344;28;20086;-72
2024/01/02 08:51:55;;;;;;;0.00;0.00;;;;;;;-145.06;100.00;54832.16;10401629;28;20029;-71
2024/01/02 08:56:55;;;;;;;0.00;0.00;;;;;;;-145.06;100.00;54787.59;10470958;28;20263;-72
2024/01/02 09:01:55;;;;;;;0.10;0.10;;;;;;;-145.06;100.00;54767.34;10445216;28;20033;-72
2024/01/02 09:06:56;;;;;;;0.10;0.10;;;;;;;-145.06;100.00;54755.19;10475069;28;20031;-72
2024/01/02 09:11:56;;;;;;;0.00;0.00;;;;;;;-145.06;100.00;54736.97;10484356;28;20090;-72
2024/01/02 09:16:56;;;;;;;0.00;0.00;;;;;;;-145.06;100.00;54765.31;10483828;28;20099;-71
2024/01/02 09:21:57;;;;;;;0.00;0.00;;;;;;;-145.06;100.00;54761.28;10483659;28;20279;-72
2024/01/02 09:27:00;;;;;;;0.00;0.00;;;;;;;-145.06;100.00;54745.06;10462652;28;20482;-72
2024/01/02 09:32:00;;;;;;;0.00;0.00;;;;;;;-145.06;100.00;54706.59;10474379;28;20322;-72
2024/01/02 09:37:01;;;;;;;0.00;0.00;;;;;;;-145.06;100.00;54743.03;10462249;28;20056;-71
2024/01/02 09:42:09;;;;;;;0.00;0.00;;;;;;;-145.06;100.00;54761.28;10457364;28;20024;-70
2024/01/02 09:47:54;;;;;;;0.00;0.00;;;;;;;-145.06;100.00;54751.16;10464257;28;20267;-71
2024/01/02 09:53:23;;;;;;;0.00;0.00;;;;;;;-145.06;100.00;54728.88;10426983;28;20028;-71
2024/01/02 09:58:42;;;;;;;0.10;0.10;;;;;;;-145.06;100.00;54732.91;10464430;28;20040;-71
2024/01/02 10:03:56;;;;;;;0.00;0.00;;;;;;;-145.06;100.00;54736.97;10459957;28;20029;-70
2024/01/02 10:09:23;;;;;;;0.00;0.00;;;;;;;-145.06;100.00;54743.03;10467951;28;20059;-70
2024/01/02 10:14:41;;;;;;;0.00;0.00;;;;;;;-145.06;100.00;54712.66;10460303;28;20023;-70
2024/01/02 10:19:53;;;;;;;0.00;0.00;;;;;;;-145.06;100.00;54753.16;10463450;28;20036;-71
2024/01/02 10:25:05;;;;;;;0.00;0.00;;;;;;;-145.06;100.00;54726.84;10446045;28;20501;-71
2024/01/02 10:30:06;;;;;;;0.00;0.00;;;;;;;-145.06;100.00;54730.88;10460330;28;20176;-72
2024/01/02 10:35:42;;;;;;;0.08;0.08;;;;;;;-145.06;100.00;54749.13;10501304;28;20032;-71
2024/01/02 10:41:06;;;;;;;0.00;0.00;;;;;;;-145.06;100.00;54734.94;10472210;28;20112;-71
2024/01/02 10:46:26;;;;;;;0.00;0.00;;;;;;;-145.06;100.00;54739.00;10456265;28;20068;-72
2024/01/02 10:51:36;;;;;;;0.00;0.00;;;;;;;-145.06;100.00;54757.22;10482579;28;20019;-71
2024/01/02 10:56:57;;;;;;;0.00;0.00;;;;;;;-145.06;100.00;54749.13;10467962;28;20482;-71
2024/01/02 11:02:17;;;;;;;0.00;0.00;;;;;;;-145.06;100.00;54765.31;10466663;28;20027;-71
2024/01/02 11:07:21;;;;;;;0.00;0.00;;;;;;;-145.06;100.00;54769.38;10495937;28;20093;-72
2024/01/02 11:12:24;;;;;;;0.10;0.10;;;;;;;-145.06;100.00;54779.50;10443599;28;20026;-71
2024/01/02 11:17:25;;;;;;;0.00;0.00;;;;;;;-145.06;100.00;54797.72;10458019;28;20429;-71
2024/01/02 11:22:36;;;;;;;0.00;0.00;;;;;;;-145.06;100.00;54803.81;10473898;28;20177;-71
2024/01/02 11:27:38;;;;;;;0.03;0.03;;;;;;;-145.06;100.00;54791.66;10499261;28;20062;-72
2024/01/02 11:33:08;;;;;;;0.00;0.00;;;;;;;-145.06;100.00;54785.59;10499185;28;20043;-72
2024/01/02 11:38:11;;;;;;;0.10;0.10;;;;;;;-145.06;100.00;54799.75;10482056;28;20033;-72
2024/01/02 11:43:25;;;;;;;0.10;0.10;;;;;;;-145.06;100.00;54793.69;10457155;28;20021;-73
2024/01/02 11:48:42;;;;;;;;;;;;;;;-145.06;100.00;54797.72;10467866;28;20107;-72
2024/01/02 11:53:48;;;;;;;0.00;0.00;;;;;;;-145.06;100.00;54805.84;10493576;28;19999;-72
2024/01/02 11:59:25;;;;;;;0.10;0.10;;;;;;;-145.06;100.00;54815.97;10440930;28;20035;-71
2024/01/02 12:04:43;;;;;;;0.00;0.00;;;;;;;-145.06;100.00;54824.06;10481549;28;20059;-71
2024/01/02 12:09:46;;;;;;;0.00;0.00;;;;;;;-145.06;100.00;54836.22;10477301;28;20066;-72
2024/01/02 12:15:08;;;;;;;0.10;0.10;;;;;;;-145.06;100.00;54854.44;10497335;28;20060;-70
2024/01/02 12:20:10;;;;;;;0.10;0.10;;;;;;;-145.06;100.00;54856.47;10496669;28;20522;-72
2024/01/02 12:25:13;;;;;;;0.10;0.10;;;;;;;-145.06;100.00;54860.53;10496891;28;20035;-72
2024/01/02 12:30:21;;;;;;;0.00;0.00;;;;;;;-145.06;100.00;54860.53;10478738;28;20017;-71
2024/01/02 12:35:28;;;;;;;0.00;0.00;;;;;;;-145.06;100.00;54880.78;10496510;28;20021;-71
2024/01/02 12:40:31;;;;;;;0.00;0.00;;;;;;;-145.06;100.00;54862.56;10496315;28;20039;-71
2024/01/02 12:45:33;;;;;;;0.00;0.00;;;;;;;-145.06;100.00;54878.75;10495940;28;20424;-71
2024/01/02 12:50:38;;;;;;;0.00;0.00;;;;;;;-145.06;100.00;54921.28;10495903;28;20016;-70
2024/01/02 12:55:49;;;;;;;;;;;;;;;-145.06;100.00;54880.78;10490153;28;20460;-73
2024/01/02 13:00:50;;;;;;;0.10;0.10;;;;;;;-145.06;100.00;54864.59;10465049;28;20274;-72
2024/01/02 13:05:50;;;;;;;0.00;0.00;;;;;;;-145.06;100.00;54884.84;10457709;28;20025;-72
2024/01/02 13:10:51;;;;;;;0.00;0.00;;;;;;;-145.06;100.00;54884.84;10437364;28;20016;-71
2024/01/02 13:15:59;;;;;;;0.00;0.00;;;;;;;-145.06;100.00;54856.47;10456092;28;20045;-71
2024/01/02 13:20:59;;;;;;;0.00;0.00;;;;;;;-145.06;100.00;54864.59;10465445;28;20622;-71
2024/01/02 13:26:00;;;;;;;0.10;0.10;;;;;;;-145.06;100.00;54892.94;10459422;28;20024;-71
2024/01/02 13:31:01;;;;;;;0.00;0.00;;;;;;;-145.06;100.00;54884.84;10437512;28;20020;-71
2024/01/02 13:36:05;;;;;;;0.05;0.05;;;;;;;-145.06;100.00;54888.88;10483359;28;20267;-72
2024/01/02 13:41:06;;;;;;;0.00;0.00;;;;;;;-145.06;100.00;54905.09;10443782;28;20036;-72
2024/01/02 13:46:11;;;;;;;0.00;0.00;;;;;;;-145.06;100.00;54909.16;10438905;28;20025;-72
2024/01/02 13:51:11;;;;;;;;;;;;;;;-145.06;100.00;54933.44;10431406;28;20032;-74
2024/01/02 13:56:11;;;;;;;0.00;0.00;;;;;;;-145.06;100.00;54941.56;10452789;28;20369;-74
2024/01/02 14:01:12;;;;;;;0.03;0.03;;;;;;;-145.06;100.00;54929.41;10452639;28;20031;-74
2024/01/02 14:06:12;;;;;;;0.10;0.10;;;;;;;-145.06;100.00;54927.38;10457946;28;20477;-74
2024/01/02 14:11:13;;;;;;;0.00;0.00;;;;;;;-145.06;100.00;54937.50;10455840;28;20806;-73
2024/01/02 14:16:14;;;;;;;0.00;0.00;;;;;;;-145.06;100.00;54941.56;10452287;28;20029;-73
2024/01/02 14:21:19;;;;;;;0.00;0.00;;;;;;;-145.06;100.00;54925.34;10451897;28;20536;-73
2024/01/02 14:26:26;;;;;;;0.10;0.10;;;;;;;-145.06;100.00;54915.22;10437755;28;20074;-75
2024/01/02 14:31:32;;;;;;;0.00;0.00;;;;;;;-145.06;100.00;54921.28;10448503;28;20367;-75
2024/01/02 14:36:47;;;;;;;0.00;0.00;;;;;;;-145.06;100.00;54925.34;10447834;28;20021;-74
2024/01/02 14:42:08;;;;;;;0.00;0.00;;;;;;;-145.06;100.00;54929.41;10451315;28;20035;-75
2024/01/02 14:47:26;;;;;;;0.00;0.00;;;;;;;-145.06;100.00;54945.59;10454494;28;20036;-73
2024/01/02 14:52:34;;;;;;;0.10;0.10;;;;;;;-145.06;100.00;54937.50;10455737;28;20021;-75
2024/01/02 14:57:42;;;;;;;0.05;0.05;;;;;;;-145.06;100.00;54907.13;10450575;28;20016;-72
2024/01/02 15:03:11;;;;;;;0.05;0.05;;;;;;;-145.06;100.00;54935.47;10456980;28;20479;-72
2024/01/02 15:08:27;;;;;;;0.10;0.10;;;;;;;-145.06;100.00;54937.50;10461444;28;20490;-71
2024/01/02 15:13:49;;;;;;;0.00;0.00;;;;;;;-145.06;100.00;54978.03;10462810;28;20036;-70
2024/01/02 15:19:06;;;;;;;0.00;0.00;;;;;;;-145.06;100.00;54973.97;10465936;28;20025;-71
2024/01/02 15:24:34;;;;;;;0.10;0.10;;;;;;;-145.06;100.00;54933.44;10462303;28;20029;-71
2024/01/02 15:29:44;;;;;;;0.00;0.00;;;;;;;-145.06;100.00;54957.75;10467352;28;20074;-71
2024/01/02 15:34:59;;;;;;;0.00;0.00;;;;;;;-145.06;100.00;54973.97;10462835;28;20487;-71
2024/01/02 15:40:07;;;;;;;0.00;0.00;;;;;;;-145.06;100.00;54969.91;10450347;28;20025;-71
2024/01/02 15:45:11;;;;;;;0.00;0.00;;;;;;;-145.06;100.00;54986.13;10460743;28;20029;-71
2024/01/02 15:50:32;;;;;;;0.00;0.00;;;;;;;-145.06;100.00;54990.19;10457529;28;20021;-70
2024/01/02 15:55:42;;;;;;;0.00;0.00;;;;;;;-145.06;100.00;54982.06;10459670;28;20028;-70
2024/01/02 16:00:44;;;;;;;0.10;0.10;;;;;;;-145.06;100.00;55010.44;10453861;28;20053;-69
2024/01/02 16:06:05;;;;;;;0.10;0.10;;;;;;;-145.06;100.00;55020.56;10452073;28;20031;-70
2024/01/02 16:11:14;;;;;;;0.00;0.00;;;;;;;-145.06;100.00;55032.72;10464156;28;20025;-70
2024/01/02 16:16:43;;;;;;;0.00;0.00;;;;;;;-145.06;100.00;55079.31;10431815;28;20432;-71
2024/01/02 16:22:05;;;;;;;0.00;0.00;;;;;;;-145.06;100.00;55079.31;10455588;28;20498;-71
2024/01/02 16:27:25;;;;;;;0.00;0.00;;;;;;;-145.06;100.00;55101.59;10477919;28;20020;-71
2024/01/02 16:32:44;;;;;;;0.10;0.10;;;;;;;-145.06;100.00;55136.03;10478852;28;20024;-72
2024/01/02 16:38:09;;;;;;;0.00;0.00;;;;;;;-145.06;100.00;55158.31;10486254;28;20025;-72
2024/01/02 16:43:10;;;;;;;0.10;0.10;;;;;;;-145.06;100.00;55190.72;10454886;28;20051;-70
2024/01/02 16:48:12;;;;;;;0.00;0.00;;;;;;;-145.06;100.00;55208.97;10454727;28;20020;-70
2024/01/02 16:53:16;;;;;;;0.00;0.00;;;;;;;-145.06;100.00;55265.69;10454511;28;20025;-70
2024/01/02 16:58:29;;;;;;;0.00;0.00;;;;;;;-145.06;100.00;55247.44;10454383;28;20522;-72
2024/01/02 17:03:36;;;;;;;0.00;0.00;;;;;;;-145.06;100.00;55255.56;10454515;28;20029;-71
2024/01/02 17:08:38;;;;;;;0.00;0.00;;;;;;;-145.06;100.00;55273.78;10453153;28;20033;-70
2024/01/02 17:13:40;;;;;;;0.00;0.00;;;;;;;-145.06;100.00;55261.63;10454017;28;20020;-71
2024/01/02 17:18:40;;;;;;;0.00;0.00;;;;;;;-145.06;100.00;55273.78;10453615;28;20017;-71
2024/01/02 17:23:41;;;;;;;0.00;0.00;;;;;;;-145.06;100.00;55265.69;10435954;28;20063;-71
2024/01/02 17:28:54;;;;;;;0.00;0.00;;;;;;;-145.06;100.00;55304.16;10435601;28;20029;-72
2024/01/02 17:34:07;;;;;;;0.00;0.00;;;;;;;-145.06;100.00;55322.41;10453292;28;20024;-72
2024/01/02 17:39:08;;;;;;;0.00;0.00;;;;;;;-145.06;100.00;55296.06;10453145;28;20110;-71
2024/01/02 17:44:09;;;;;;;0.00;0.00;;;;;;;-145.06;100.00;55302.16;10435182;28;20543;-71
2024/01/02 17:49:10;;;;;;;0.00;0.00;;;;;;;-145.06;100.00;55328.47;10453073;28;20032;-72
2024/01/02 17:54:10;;;;;;;0.00;0.00;;;;;;;-145.06;100.00;55287.97;10452921;28;20467;-71
2024/01/02 17:59:19;;;;;;;0.00;0.00;;;;;;;-145.06;100.00;55290.00;10452763;28;20263;-71
2024/01/02 18:04:41;;;;;;;0.00;0.00;;;;;;;-145.06;100.00;55279.84;10452601;28;20027;-71
2024/01/02 18:10:00;;;;;;;0.00;0.00;;;;;;;-145.06;100.00;55263.66;10452710;28;20100;-72
2024/01/02 18:15:30;;;;;;;0.00;0.00;;;;;;;-145.06;100.00;55298.09;10439325;28;20163;-72
2024/01/02 18:20:33;;;;;;;0.05;0.05;;;;;;;-145.06;100.00;55298.09;10415709;28;20159;-72
2024/01/02 18:25:44;;;;;;;0.00;0.00;;;;;;;-145.06;100.00;55275.81;10418998;28;20037;-72
2024/01/02 18:31:06;;;;;;;0.10;0.10;;;;;;;-145.06;100.00;55306.19;10421104;28;20048;-71
2024/01/02 18:36:23;;;;;;;0.00;0.00;;;;;;;-145.06;100.00;55354.81;10501423;28;20102;-72
2024/01/02 18:41:41;;;;;;;0.10;0.10;;;;;;;-145.06;100.00;55411.53;10501034;28;20024;-72
2024/01/02 18:47:01;;;;;;;0.10;0.10;;;;;;;-145.06;100.00;55415.59;10500864;28;20032;-72
2024/01/02 18:52:20;;;;;;;0.00;0.00;;;;;;;-145.06;100.00;55468.28;10500742;28;20029;-71
2024/01/02 18:57:22;;;;;;;0.00;0.00;;;;;;;-145.06;100.00;55492.59;10500588;28;20054;-72
2024/01/02 19:02:22;;;;;;;0.00;0.00;;;;;;;-145.06;100.00;55456.13;10500202;28;20024;-71
2024/01/02 19:07:23;;;;;;;0.10;0.10;;;;;;;-145.06;100.00;55543.22;10500086;28;20029;-71
2024/01/02 19:12:23;;;;;;;0.10;0.10;;;;;;;-145.06;100.00;55602.00;10465349;28;20372;-72
2024/01/02 19:17:24;;;;;;;0.03;0.03;;;;;;;-145.06;100.00;55591.84;10458207;28;20025;-71
2024/01/02 19:22:29;;;;;;;0.10;0.10;;;;;;;-145.06;100.00;55585.78;10459648;28;20022;-72
2024/01/02 19:27:30;;;;;;;0.00;0.00;;;;;;;-145.06;100.00;55579.69;10499396;28;20154;-72
2024/01/02 19:32:30;;;;;;;0.00;0.00;;;;;;;-145.06;100.00;55644.53;10498102;28;20128;-72
2024/01/02 19:37:31;;;;;;;0.00;0.00;;;;;;;-145.06;100.00;55654.66;10499003;28;20500;-72
2024/01/02 19:42:32;;;;;;;0.00;0.00;;;;;;;-145.06;100.00;55705.31;10498890;28;20031;-72
2024/01/02 19:47:32;;;;;;;0.00;0.00;;;;;;;-145.06;100.00;55743.81;10498230;28;20337;-71
2024/01/02 19:52:32;;;;;;;0.00;0.00;;;;;;;-145.06;100.00;55747.88;10480351;28;20111;-71
2024/01/02 19:57:32;;;;;;;0.00;0.00;;;;;;;-145.06;100.00;55784.34;10498286;28;20052;-72
2024/01/02 20:02:42;;;;;;;0.00;0.00;;;;;;;-145.06;100.00;55768.13;10465543;28;20021;-72
2024/01/02 20:07:43;;;;;;;0.10;0.10;;;;;;;-145.06;100.00;55735.72;10456317;28;20421;-71
2024/01/02 20:12:55;;;;;;;0.10;0.10;;;;;;;-145.06;100.00;55826.88;10479532;28;20030;-71
2024/01/02 20:17:58;;;;;;;0.00;0.00;;;;;;;-145.06;100.00;55822.84;10479318;28;20036;-72
2024/01/02 20:22:59;;;;;;;0.00;0.00;;;;;;;-145.06;100.00;55851.19;10497064;28;20024;-71
2024/01/02 20:28:00;;;;;;;0.00;0.00;;;;;;;-145.06;100.00;55903.88;10495583;28;20024;-71
2024/01/02 20:33:01;;;;;;;0.00;0.00;;;;;;;-145.06;100.00;55938.31;10496659;28;20020;-72
2024/01/02 20:38:22;;;;;;;0.00;0.00;;;;;;;-145.06;100.00;55995.06;10496422;28;20379;-72
2024/01/02 20:43:23;;;;;;;0.00;0.00;;;;;;;-145.06;100.00;55976.81;10495984;28;20486;-72
2024/01/02 20:48:23;;;;;;;0.00;0.00;;;;;;;-145.06;100.00;56092.31;10478185;28;20035;-71
2024/01/02 20:53:43;;;;;;;0.00;0.00;;;;;;;-145.06;100.00;56134.88;10478207;28;20381;-71
2024/01/02 20:58:43;;;;;;;0.00;0.00;;;;;;;-145.06;100.00;56179.44;10495686;28;20074;-71
2024/01/02 21:04:19;;;;;;;0.00;0.00;;;;;;;-145.06;100.00;56201.75;10495324;28;20067;-71
2024/01/02 21:09:25;;;;;;;0.00;0.00;;;;;;;-145.06;100.00;56307.09;10477625;28;20112;-71
2024/01/02 21:14:25;;;;;;;0.10;0.10;;;;;;;-145.06;100.00;56469.22;10495194;28;20052;-72
2024/01/02 21:19:42;;;;;;;0.00;0.00;;;;;;;-145.06;100.00;56570.53;10482570;28;20432;-71
2024/01/02 21:24:42;;;;;;;0.00;0.00;;;;;;;-145.06;100.00;56546.22;10495746;28;20359;-72
2024/01/02 21:29:42;;;;;;;0.00;0.00;;;;;;;-145.06;100.00;56568.53;10457293;28;20107;-72
2024/01/02 21:34:43;;;;;;;0.10;0.10;;;;;;;-145.06;100.00;56509.75;10494892;28;20025;-73
2024/01/02 21:39:45;;;;;;;0.10;0.10;;;;;;;-145.06;100.00;56525.97;10495247;28;20667;-71
2024/01/02 21:44:46;;;;;;;0.00;0.00;;;;;;;-145.06;100.00;56572.56;10494406;28;20056;-72
2024/01/02 21:49:46;;;;;;;0.10;0.10;;;;;;;-145.06;100.00;56566.50;10477045;28;20060;-71
2024/01/02 21:54:46;;;;;;;0.03;0.03;;;;;;;-145.06;100.00;56570.53;10497940;28;20017;-71
2024/01/02 21:59:47;;;;;;;0.10;0.10;;;;;;;-145.06;100.00;56688.09;10468422;28;20037;-72
2024/01/02 22:04:48;;;;;;;0.00;0.00;;;;;;;-145.06;100.00;56799.56;10461016;28;20033;-72
2024/01/02 22:09:48;;;;;;;0.10;0.10;;;;;;;-145.06;100.00;56911.03;10460950;28;20146;-72
2024/01/02 22:14:48;;;;;;;0.08;0.08;;;;;;;-145.06;100.00;56996.13;10460865;28;20263;-73
2024/01/02 22:19:50;;;;;;;0.10;0.10;;;;;;;-145.06;100.00;56979.94;10482800;28;20024;-73
2024/01/02 22:24:59;;;;;;;0.10;0.10;;;;;;;-145.06;100.00;56882.66;10501791;28;20029;-73
2024/01/02 22:29:59;;;;;;;0.10;0.10;;;;;;;-145.06;100.00;57048.84;10501665;28;20323;-73
2024/01/02 22:35:10;;;;;;;0.10;0.10;;;;;;;-145.06;100.00;57283.94;10501413;28;20020;-73
2024/01/02 22:40:19;;;;;;;0.00;0.00;;;;;;;-145.06;100.00;57332.59;10473895;28;20036;-72
2024/01/02 22:45:19;;;;;;;0.10;0.10;;;;;;;-145.06;100.00;57326.50;10459558;28;20051;-72
2024/01/02 22:50:19;;;;;;;0.00;0.00;;;;;;;-145.06;100.00;57555.56;10459578;28;20032;-72